John James Audubon — WDE8037 — position and weather

sailwx.info

Track history (hours):
 
Tides and Currents Weather Stations Pressure Air Temp Water Temp Dewpoint Dewpoint Depression Visibility Wind Speed Wind Dir Waves Ship Positions

John James Audubon

Owner: Statue Cruises, Jersey City, NJ. More information available from US FCC via Universal Licensing System and Coast Guard Vessel Documentation Center.

Last reported at 2016-Feb-12 21:34 UTC. Time now 2016-Feb-12 22:26 UTC.
Position N 40°41' W 074°02'.

Length 37 m.

Type: Ship. MMSI: 367400770.

Date/timePositionNaut miles runAvg speedWind from/ knotsBaromVisibWave heightAir tempDewpointWater temp
2016-Feb-12 21:34N 40°41' W 074°02'2 1.9
2016-Feb-12 20:34N 40°42' W 074°00'0 0.0
2016-Feb-12 19:33N 40°42' W 074°00'2 2.0
2016-Feb-12 18:34N 40°41' W 074°02'2 2.0
2016-Feb-12 17:33N 40°42' W 074°00'0 0.0
2016-Feb-12 16:33N 40°42' W 074°00'2 2.0
2016-Feb-12 15:34N 40°41' W 074°02'2 2.0
2016-Feb-12 14:34N 40°42' W 074°00'2 1.6
2016-Feb-12 13:33N 40°44' W 074°01'0 0.0
2016-Feb-11 22:33N 40°44' W 074°01'3 2.6
2016-Feb-11 21:33N 40°41' W 074°02'2 1.7
2016-Feb-11 20:33N 40°42' W 074°00'0 0.0
2016-Feb-11 19:33N 40°42' W 074°00'2 1.8
2016-Feb-11 18:33N 40°41' W 074°02'2 1.8
2016-Feb-11 17:31N 40°42' W 074°00'0 0.0
2016-Feb-11 16:32N 40°42' W 074°00'2 2.0
2016-Feb-11 15:33N 40°41' W 074°02'2 1.8
2016-Feb-11 14:27N 40°42' W 074°00'1 0.1
2016-Feb-10 22:23N 40°43' W 074°01'1 1.7
2016-Feb-10 21:33N 40°42' W 074°01'1 0.9
2016-Feb-10 20:33N 40°42' W 074°00'0 0.0
2016-Feb-10 19:33N 40°42' W 074°00'1 0.9
2016-Feb-10 18:33N 40°42' W 074°01'1 0.9
2016-Feb-10 17:33N 40°42' W 074°00'0 0.0
2016-Feb-10 16:33N 40°42' W 074°00'2 1.7
2016-Feb-10 15:33N 40°41' W 074°02'2 1.7
2016-Feb-10 14:33N 40°42' W 074°00'2 0.1
2016-Feb-09 22:20N 40°44' W 074°01'2 2.8
2016-Feb-09 21:33N 40°41' W 074°01'1 1.2
2016-Feb-09 20:33N 40°42' W 074°00'0 0.0
2016-Feb-09 19:33N 40°42' W 074°00'2 1.6
2016-Feb-09 18:33N 40°41' W 074°02'2 1.5
2016-Feb-09 17:33N 40°42' W 074°00'0 0.0
2016-Feb-09 16:33N 40°42' W 074°00'1 1.2
2016-Feb-09 15:33N 40°42' W 074°02'1 1.2
2016-Feb-09 14:33N 40°42' W 074°00'2 0.1
2016-Feb-08 22:24N 40°44' W 074°01'2 2.8
2016-Feb-08 21:34N 40°41' W 074°02'2 1.5
2016-Feb-08 20:34N 40°42' W 074°00'0 0.0
2016-Feb-08 19:33N 40°42' W 074°00'2 1.5
2016-Feb-08 18:34N 40°41' W 074°02'2 1.5
2016-Feb-08 17:33N 40°42' W 074°00'0 0.0
2016-Feb-08 16:33N 40°42' W 074°00'1 1.5
2016-Feb-08 15:34N 40°41' W 074°02'1 1.5
2016-Feb-08 14:34N 40°42' W 074°00'2 1.6
2016-Feb-08 13:34N 40°44' W 074°01'0 0.0
2016-Feb-07 22:30N 40°44' W 074°01'2 2.4
2016-Feb-07 21:34N 40°42' W 074°01'1 1.0
2016-Feb-07 20:33N 40°42' W 074°00'0 0.0
2016-Feb-07 19:34N 40°42' W 074°00'1 1.2
2016-Feb-07 18:33N 40°42' W 074°01'1 1.2
2016-Feb-07 17:33N 40°42' W 074°00'0 0.0
2016-Feb-07 16:34N 40°42' W 074°00'2 2.1
2016-Feb-07 15:34N 40°41' W 074°03'0 0.0
2016-Feb-07 14:34N 40°41' W 074°03'1 0.1
2016-Feb-06 22:33N 40°42' W 074°01'1 0.8
2016-Feb-06 21:33N 40°42' W 074°02'1 1.3
2016-Feb-06 20:33N 40°42' W 074°00'0 0.0
2016-Feb-06 19:33N 40°42' W 074°00'2 1.5
2016-Feb-06 18:33N 40°41' W 074°02'2 1.5
2016-Feb-06 17:33N 40°42' W 074°00'0 0.0
2016-Feb-06 16:33N 40°42' W 074°00'1 1.4
2016-Feb-06 15:33N 40°41' W 074°02'1 1.0
2016-Feb-06 14:33N 40°42' W 074°01'0 0.5
2016-Feb-06 13:33N 40°42' W 074°00'2 0.1
2016-Feb-05 23:33N 40°44' W 074°01'0 0.0
2016-Feb-05 22:33N 40°44' W 074°01'3 2.6
2016-Feb-05 21:33N 40°41' W 074°02'2 1.6
2016-Feb-05 20:33N 40°42' W 074°00'0 0.0
2016-Feb-05 19:33N 40°42' W 074°00'2 1.7
2016-Feb-05 18:33N 40°41' W 074°02'2 1.7
2016-Feb-05 17:34N 40°42' W 074°00'1 0.6
2016-Feb-05 16:33N 40°42' W 074°01'1 0.8
2016-Feb-05 15:33N 40°41' W 074°02'1 0.9
2016-Feb-05 14:33N 40°42' W 074°01'2 0.1
2016-Feb-04 22:33N 40°44' W 074°01'3 2.6
2016-Feb-04 21:33N 40°41' W 074°02'2 1.5
2016-Feb-04 20:33N 40°42' W 074°00'0 0.0
2016-Feb-04 19:33N 40°42' W 074°00'1 1.3
2016-Feb-04 18:33N 40°41' W 074°02'1 1.3
2016-Feb-04 17:34N 40°42' W 074°00'0 0.0
2016-Feb-04 16:33N 40°42' W 074°00'2 1.7
2016-Feb-04 15:33N 40°41' W 074°02'2 1.7
2016-Feb-04 14:33N 40°42' W 074°00'0 0.0
2016-Feb-03 22:33N 40°42' W 074°00'2 1.9
2016-Feb-03 21:33N 40°41' W 074°02'2 2.0
2016-Feb-03 20:34N 40°42' W 074°00'0 0.0
2016-Feb-03 19:33N 40°42' W 074°00'1 1.4
2016-Feb-03 18:33N 40°42' W 074°02'1 1.4
2016-Feb-03 17:33N 40°42' W 074°00'0 0.0
2016-Feb-03 16:33N 40°42' W 074°00'1 1.2
2016-Feb-03 15:33N 40°42' W 074°02'1 1.2
2016-Feb-03 14:33N 40°42' W 074°00'1 0.1
2016-Feb-02 22:19N 40°43' W 074°01'  
Track history (hours):
 
Tides and Currents Weather Stations Pressure Air Temp Water Temp Dewpoint Dewpoint Depression Visibility Wind Speed Wind Dir Waves Ship Positions

John James Audubon

Owner: Statue Cruises, Jersey City, NJ. More information available from US FCC via Universal Licensing System and Coast Guard Vessel Documentation Center.

Last reported at 2016-Feb-12 21:34 UTC. Time now 2016-Feb-12 22:26 UTC.
Position N 40°41' W 074°02'.

Length 37 m.

Type: Ship. MMSI: 367400770.

Date/timePositionNaut miles runAvg speedWind from/ knotsBaromVisibWave heightAir tempDewpointWater temp
2016-Feb-12 21:34N 40°41' W 074°02'2 1.9
2016-Feb-12 20:34N 40°42' W 074°00'0 0.0
2016-Feb-12 19:33N 40°42' W 074°00'2 2.0
2016-Feb-12 18:34N 40°41' W 074°02'2 2.0
2016-Feb-12 17:33N 40°42' W 074°00'0 0.0
2016-Feb-12 16:33N 40°42' W 074°00'2 2.0
2016-Feb-12 15:34N 40°41' W 074°02'2 2.0
2016-Feb-12 14:34N 40°42' W 074°00'2 1.6
2016-Feb-12 13:33N 40°44' W 074°01'0 0.0
2016-Feb-11 22:33N 40°44' W 074°01'3 2.6
2016-Feb-11 21:33N 40°41' W 074°02'2 1.7
2016-Feb-11 20:33N 40°42' W 074°00'0 0.0
2016-Feb-11 19:33N 40°42' W 074°00'2 1.8
2016-Feb-11 18:33N 40°41' W 074°02'2 1.8
2016-Feb-11 17:31N 40°42' W 074°00'0 0.0
2016-Feb-11 16:32N 40°42' W 074°00'2 2.0
2016-Feb-11 15:33N 40°41' W 074°02'2 1.8
2016-Feb-11 14:27N 40°42' W 074°00'1 0.1
2016-Feb-10 22:23N 40°43' W 074°01'1 1.7
2016-Feb-10 21:33N 40°42' W 074°01'1 0.9
2016-Feb-10 20:33N 40°42' W 074°00'0 0.0
2016-Feb-10 19:33N 40°42' W 074°00'1 0.9
2016-Feb-10 18:33N 40°42' W 074°01'1 0.9
2016-Feb-10 17:33N 40°42' W 074°00'0 0.0
2016-Feb-10 16:33N 40°42' W 074°00'2 1.7
2016-Feb-10 15:33N 40°41' W 074°02'2 1.7
2016-Feb-10 14:33N 40°42' W 074°00'2 0.1
2016-Feb-09 22:20N 40°44' W 074°01'2 2.8
2016-Feb-09 21:33N 40°41' W 074°01'1 1.2
2016-Feb-09 20:33N 40°42' W 074°00'0 0.0
2016-Feb-09 19:33N 40°42' W 074°00'2 1.6
2016-Feb-09 18:33N 40°41' W 074°02'2 1.5
2016-Feb-09 17:33N 40°42' W 074°00'0 0.0
2016-Feb-09 16:33N 40°42' W 074°00'1 1.2
2016-Feb-09 15:33N 40°42' W 074°02'1 1.2
2016-Feb-09 14:33N 40°42' W 074°00'2 0.1
2016-Feb-08 22:24N 40°44' W 074°01'2 2.8
2016-Feb-08 21:34N 40°41' W 074°02'2 1.5
2016-Feb-08 20:34N 40°42' W 074°00'0 0.0
2016-Feb-08 19:33N 40°42' W 074°00'2 1.5
2016-Feb-08 18:34N 40°41' W 074°02'2 1.5
2016-Feb-08 17:33N 40°42' W 074°00'0 0.0
2016-Feb-08 16:33N 40°42' W 074°00'1 1.5
2016-Feb-08 15:34N 40°41' W 074°02'1 1.5
2016-Feb-08 14:34N 40°42' W 074°00'2 1.6
2016-Feb-08 13:34N 40°44' W 074°01'0 0.0
2016-Feb-07 22:30N 40°44' W 074°01'2 2.4
2016-Feb-07 21:34N 40°42' W 074°01'1 1.0
2016-Feb-07 20:33N 40°42' W 074°00'0 0.0
2016-Feb-07 19:34N 40°42' W 074°00'1 1.2
2016-Feb-07 18:33N 40°42' W 074°01'1 1.2
2016-Feb-07 17:33N 40°42' W 074°00'0 0.0
2016-Feb-07 16:34N 40°42' W 074°00'2 2.1
2016-Feb-07 15:34N 40°41' W 074°03'0 0.0
2016-Feb-07 14:34N 40°41' W 074°03'1 0.1
2016-Feb-06 22:33N 40°42' W 074°01'1 0.8
2016-Feb-06 21:33N 40°42' W 074°02'1 1.3
2016-Feb-06 20:33N 40°42' W 074°00'0 0.0
2016-Feb-06 19:33N 40°42' W 074°00'2 1.5
2016-Feb-06 18:33N 40°41' W 074°02'2 1.5
2016-Feb-06 17:33N 40°42' W 074°00'0 0.0
2016-Feb-06 16:33N 40°42' W 074°00'1 1.4
2016-Feb-06 15:33N 40°41' W 074°02'1 1.0
2016-Feb-06 14:33N 40°42' W 074°01'0 0.5
2016-Feb-06 13:33N 40°42' W 074°00'2 0.1
2016-Feb-05 23:33N 40°44' W 074°01'0 0.0
2016-Feb-05 22:33N 40°44' W 074°01'3 2.6
2016-Feb-05 21:33N 40°41' W 074°02'2 1.6
2016-Feb-05 20:33N 40°42' W 074°00'0 0.0
2016-Feb-05 19:33N 40°42' W 074°00'2 1.7
2016-Feb-05 18:33N 40°41' W 074°02'2 1.7
2016-Feb-05 17:34N 40°42' W 074°00'1 0.6
2016-Feb-05 16:33N 40°42' W 074°01'1 0.8
2016-Feb-05 15:33N 40°41' W 074°02'1 0.9
2016-Feb-05 14:33N 40°42' W 074°01'2 0.1
2016-Feb-04 22:33N 40°44' W 074°01'3 2.6
2016-Feb-04 21:33N 40°41' W 074°02'2 1.5
2016-Feb-04 20:33N 40°42' W 074°00'0 0.0
2016-Feb-04 19:33N 40°42' W 074°00'1 1.3
2016-Feb-04 18:33N 40°41' W 074°02'1 1.3
2016-Feb-04 17:34N 40°42' W 074°00'0 0.0
2016-Feb-04 16:33N 40°42' W 074°00'2 1.7
2016-Feb-04 15:33N 40°41' W 074°02'2 1.7
2016-Feb-04 14:33N 40°42' W 074°00'0 0.0
2016-Feb-03 22:33N 40°42' W 074°00'2 1.9
2016-Feb-03 21:33N 40°41' W 074°02'2 2.0
2016-Feb-03 20:34N 40°42' W 074°00'0 0.0
2016-Feb-03 19:33N 40°42' W 074°00'1 1.4
2016-Feb-03 18:33N 40°42' W 074°02'1 1.4
2016-Feb-03 17:33N 40°42' W 074°00'0 0.0
2016-Feb-03 16:33N 40°42' W 074°00'1 1.2
2016-Feb-03 15:33N 40°42' W 074°02'1 1.2
2016-Feb-03 14:33N 40°42' W 074°00'1 0.1
2016-Feb-02 22:19N 40°43' W 074°01'  

Dump ship's entire track history